Time;durP1;ratioP1;P1;durP2;ratioP2;P2;SDS_P1;SDS_P2;PMS_P1;PMS_P2;Temp;Humidity;BMP_temperature;BMP_pressure;BME280_temperature;BME280_humidity;BME280_pressure;Samples;Min_cycle;Max_cycle;Signal;HPM_P1;HPM_P2
2021/05/23 00:00:25;;;;;;;17.55;15.18;;;;;;;9.73;92.90;100843.09;6367896;23;20036;-67
2021/05/23 00:02:59;;;;;;;16.05;14.32;;;;;;;9.77;92.98;100841.88;6367058;23;20037;-67
2021/05/23 00:05:31;;;;;;;16.23;14.45;;;;;;;9.70;92.88;100848.59;6367246;23;20499;-67
2021/05/23 00:08:06;;;;;;;15.77;14.27;;;;;;;9.73;92.95;100848.31;6367722;23;20010;-67
2021/05/23 00:10:50;;;;;;;16.08;14.02;;;;;;;9.78;93.01;100843.56;6341621;23;20089;-67
2021/05/23 00:13:25;;;;;;;17.42;15.63;;;;;;;9.77;93.09;100848.91;6366630;23;20009;-67
2021/05/23 00:16:29;;;;;;;17.17;15.48;;;;;;;9.83;92.86;100851.03;6367678;23;20063;-67
2021/05/23 00:19:00;;;;;;;17.90;15.88;;;;;;;9.72;93.24;100850.13;6384556;23;20040;-67
2021/05/23 00:21:31;;;;;;;17.92;16.02;;;;;;;9.69;93.22;100847.75;6368394;23;20516;-65
2021/05/23 00:24:03;;;;;;;18.90;16.17;;;;;;;9.70;93.20;100849.44;6366329;23;20014;-66
2021/05/23 00:26:36;;;;;;;19.58;17.48;;;;;;;9.67;93.42;100848.84;6367039;23;20025;-66
2021/05/23 00:29:07;;;;;;;20.03;17.83;;;;;;;9.65;93.30;100842.88;6368238;23;20430;-66
2021/05/23 00:31:39;;;;;;;20.23;17.88;;;;;;;9.67;93.42;100854.06;6367407;23;20081;-66
2021/05/23 00:34:10;;;;;;;18.85;16.95;;;;;;;9.65;93.34;100848.94;6366758;23;20134;-66
2021/05/23 00:36:42;;;;;;;20.30;18.10;;;;;;;9.66;93.50;100855.00;6367917;23;20010;-66
2021/05/23 00:39:13;;;;;;;19.83;17.30;;;;;;;9.63;93.49;100840.41;6367306;23;20006;-66
2021/05/23 00:41:45;;;;;;;21.50;19.23;;;;;;;9.69;93.45;100847.75;6366188;23;20374;-66
2021/05/23 00:44:16;;;;;;;21.63;19.50;;;;;;;9.69;93.53;100849.53;6363415;23;20618;-66
2021/05/23 00:46:47;;;;;;;23.20;19.65;;;;;;;9.67;93.57;100848.84;6366036;23;20384;-66
2021/05/23 00:49:19;;;;;;;23.10;20.42;;;;;;;9.67;93.39;100852.28;6366036;23;20006;-68
2021/05/23 00:51:51;;;;;;;23.08;20.60;;;;;;;9.68;93.23;100858.34;6366189;23;20682;-66
2021/05/23 00:54:22;;;;;;;23.53;21.00;;;;;;;9.68;93.17;100859.16;6366946;23;20010;-66
2021/05/23 00:56:54;;;;;;;24.40;20.90;;;;;;;9.70;93.23;100856.44;6366966;23;20063;-66
2021/05/23 00:59:26;;;;;;;26.15;20.95;;;;;;;9.71;93.65;100865.94;6367389;23;20016;-66
2021/05/23 01:01:57;;;;;;;23.42;21.02;;;;;;;9.70;93.76;100849.44;6367528;23;20010;-66
2021/05/23 01:04:28;;;;;;;24.47;21.90;;;;;;;9.68;93.74;100851.31;6366351;23;20006;-66
2021/05/23 01:07:00;;;;;;;27.35;23.67;;;;;;;9.67;93.82;100867.97;6365170;23;20021;-66
2021/05/23 01:09:31;;;;;;;24.33;21.42;;;;;;;9.67;93.83;100867.97;6368023;23;20008;-66
2021/05/23 01:12:25;;;;;;;27.20;23.08;;;;;;;9.74;94.07;100860.47;6365479;23;20012;-66
2021/05/23 01:14:58;;;;;;;;;;;;;;;9.87;92.84;100868.97;6365767;23;20500;-66
2021/05/23 01:17:40;;;;;;;25.05;22.40;;;;;;;9.72;94.04;100863.19;6366923;23;19920;-66
2021/05/23 01:20:20;;;;;;;28.17;23.77;;;;;;;9.70;93.71;100861.69;6366897;23;20326;-66
2021/05/23 01:23:22;;;;;;;25.80;22.60;;;;;;;9.77;94.08;100872.44;6366475;23;20056;-66
2021/05/23 01:26:03;;;;;;;26.17;23.20;;;;;;;9.68;94.37;100874.88;6366637;23;20605;-66
2021/05/23 01:28:42;;;;;;;26.85;23.77;;;;;;;9.61;94.33;100860.63;6367637;23;20093;-66
2021/05/23 01:31:16;;;;;;;28.75;24.27;;;;;;;9.65;94.76;100869.88;6366104;23;20033;-66
2021/05/23 01:33:53;;;;;;;27.67;24.02;;;;;;;9.62;94.39;100862.28;6364115;23;20389;-66
2021/05/23 01:36:28;;;;;;;27.13;23.98;;;;;;;9.66;94.68;100875.94;6366660;23;20453;-66
2021/05/23 01:39:01;;;;;;;27.23;24.38;;;;;;;9.63;94.71;100869.19;6367221;23;20028;-66
2021/05/23 01:41:35;;;;;;;27.67;23.48;;;;;;;9.66;94.69;100868.94;6367023;23;20009;-66
2021/05/23 01:44:07;;;;;;;26.92;24.05;;;;;;;9.65;94.90;100875.09;6367013;23;20479;-66
2021/05/23 01:46:39;;;;;;;28.10;23.55;;;;;;;9.61;94.77;100872.88;6366501;23;20010;-66
2021/05/23 01:49:11;;;;;;;26.55;23.50;;;;;;;9.65;94.96;100874.28;6367863;23;20585;-66
2021/05/23 01:51:42;;;;;;;27.35;24.13;;;;;;;9.66;94.77;100879.41;6363394;23;20084;-66
2021/05/23 01:54:13;;;;;;;26.15;23.13;;;;;;;9.66;95.00;100875.94;6364655;23;20018;-66
2021/05/23 01:56:45;;;;;;;27.45;24.30;;;;;;;9.64;95.02;100880.47;6364314;23;20009;-66
2021/05/23 01:59:16;;;;;;;28.85;25.10;;;;;;;9.60;94.85;100873.81;6365214;23;20010;-67
2021/05/23 02:01:47;;;;;;;27.85;24.88;;;;;;;9.58;95.02;100879.16;6363749;23;20013;-66
2021/05/23 02:04:20;;;;;;;29.48;23.75;;;;;;;9.57;94.74;100876.69;6365739;23;20030;-66
2021/05/23 02:06:51;;;;;;;26.00;23.33;;;;;;;9.58;94.90;100883.56;6365277;23;20099;-66
2021/05/23 02:09:23;;;;;;;27.98;25.00;;;;;;;9.54;95.01;100882.97;6366189;23;20006;-66
2021/05/23 02:11:55;;;;;;;28.05;23.25;;;;;;;9.54;94.80;100882.16;6367198;23;20009;-66
2021/05/23 02:14:27;;;;;;;28.25;24.13;;;;;;;9.54;95.08;100876.91;6365753;23;20452;-66
2021/05/23 02:16:58;;;;;;;29.60;24.42;;;;;;;9.53;95.04;100880.50;6366261;23;20010;-66
2021/05/23 02:19:29;;;;;;;28.23;24.48;;;;;;;9.52;94.74;100879.66;6366752;23;20009;-66
2021/05/23 02:22:01;;;;;;;29.55;25.45;;;;;;;9.53;95.32;100880.50;6367310;23;20017;-66
2021/05/23 02:24:32;;;;;;;33.13;27.33;;;;;;;9.52;94.99;100876.22;6366726;23;20117;-66
2021/05/23 02:27:04;;;;;;;30.77;24.85;;;;;;;9.50;95.28;100878.94;6367396;23;20152;-66
2021/05/23 02:29:35;;;;;;;30.50;24.52;;;;;;;9.50;94.66;100885.00;6367855;23;20015;-67
2021/05/23 02:32:07;;;;;;;28.88;25.88;;;;;;;9.49;95.13;100887.75;6368618;23;20079;-66
2021/05/23 02:34:50;;;;;;;28.25;25.33;;;;;;;9.54;95.35;100887.38;6367030;23;20014;-66
2021/05/23 02:37:21;;;;;;;28.25;25.08;;;;;;;9.48;95.03;100886.94;6368258;23;20010;-66
2021/05/23 02:39:52;;;;;;;36.17;26.65;;;;;;;9.48;95.26;100892.16;6368668;23;20013;-67
2021/05/23 02:42:23;;;;;;;30.95;25.52;;;;;;;9.50;94.96;100897.25;6367522;23;20084;-66
2021/05/23 02:44:55;;;;;;;25.80;23.00;;;;;;;9.52;95.28;100897.16;6367431;23;20083;-67
2021/05/23 02:47:26;;;;;;;29.23;25.23;;;;;;;9.48;95.15;100878.25;6367756;23;20082;-66
2021/05/23 02:49:57;;;;;;;27.35;23.88;;;;;;;9.51;95.12;100888.47;6367539;23;19997;-66
2021/05/23 02:52:28;;;;;;;29.27;25.10;;;;;;;9.53;94.82;100893.56;6368292;23;20333;-67
2021/05/23 02:55:00;;;;;;;27.95;23.05;;;;;;;9.51;94.97;100891.09;6367511;23;20117;-67
2021/05/23 02:57:33;;;;;;;27.67;23.80;;;;;;;9.49;95.09;100895.59;6367949;23;20055;-67
2021/05/23 03:00:06;;;;;;;31.90;24.63;;;;;;;9.50;95.28;100894.63;6367708;23;20449;-66
2021/05/23 03:02:38;;;;;;;31.35;23.45;;;;;;;9.49;95.16;100888.59;6367877;23;20059;-67
2021/05/23 03:05:12;;;;;;;28.33;23.38;;;;;;;9.48;95.38;100900.00;6368030;23;20009;-67
2021/05/23 03:07:46;;;;;;;28.60;24.15;;;;;;;9.49;95.30;100900.84;6367180;23;20017;-67
2021/05/23 03:10:21;;;;;;;30.77;23.83;;;;;;;9.50;95.56;100900.69;6367411;23;20006;-67
2021/05/23 03:12:53;;;;;;;31.80;24.10;;;;;;;9.49;95.41;100901.66;6368184;23;20430;-66
2021/05/23 03:15:26;;;;;;;27.08;23.85;;;;;;;9.53;95.23;100904.03;6366888;23;20010;-66
2021/05/23 03:17:58;;;;;;;28.38;23.23;;;;;;;9.55;95.32;100897.75;6368108;23;20372;-67
2021/05/23 03:20:31;;;;;;;25.00;22.33;;;;;;;9.52;95.01;100907.63;6367831;23;20009;-67
2021/05/23 03:23:03;;;;;;;28.73;22.17;;;;;;;9.49;94.89;100909.50;6367592;23;20104;-67
2021/05/23 03:25:35;;;;;;;26.17;21.08;;;;;;;9.49;94.83;100913.91;6342482;23;20006;-66
2021/05/23 03:28:06;;;;;;;29.30;21.55;;;;;;;9.49;95.03;100913.91;6367230;23;20097;-67
2021/05/23 03:30:41;;;;;;;31.25;21.25;;;;;;;9.50;95.35;100916.38;6367130;23;20029;-66
2021/05/23 03:33:12;;;;;;;28.38;21.25;;;;;;;9.49;95.28;100922.59;6367441;23;20350;-67
2021/05/23 03:35:44;;;;;;;28.05;21.67;;;;;;;9.49;95.26;100925.19;6368171;23;20010;-67
2021/05/23 03:38:15;;;;;;;31.92;21.48;;;;;;;9.52;94.98;100925.91;6366847;23;20024;-67
2021/05/23 03:40:46;;;;;;;24.48;19.52;;;;;;;9.49;95.12;100930.44;6366958;23;20484;-67
2021/05/23 03:43:18;;;;;;;23.65;19.02;;;;;;;9.52;95.06;100924.13;6367232;23;20477;-67
2021/05/23 03:45:49;;;;;;;25.38;20.08;;;;;;;9.51;95.07;100927.72;6368215;23;20010;-66
2021/05/23 03:48:21;;;;;;;23.60;19.90;;;;;;;9.49;94.86;100922.59;6368046;23;20010;-67
2021/05/23 03:50:52;;;;;;;30.02;20.17;;;;;;;9.50;94.85;100928.63;6366921;23;20006;-67
2021/05/23 03:53:23;;;;;;;22.50;18.98;;;;;;;9.50;94.86;100931.25;6367569;23;20006;-67
2021/05/23 03:55:55;;;;;;;21.73;18.60;;;;;;;9.46;95.28;100922.81;6368057;23;20077;-66
2021/05/23 03:58:26;;;;;;;30.65;19.63;;;;;;;9.49;95.31;100933.03;6367794;23;20014;-66
2021/05/23 04:00:57;;;;;;;28.58;19.50;;;;;;;9.48;95.38;100930.56;6363942;23;20131;-67
2021/05/23 04:03:29;;;;;;;25.13;18.65;;;;;;;9.49;95.61;100943.50;6366102;23;20005;-67
2021/05/23 04:06:00;;;;;;;28.85;17.90;;;;;;;9.46;95.29;100946.34;6367273;23;20013;-66
2021/05/23 04:08:32;;;;;;;23.38;18.50;;;;;;;9.47;95.11;100944.56;6367919;23;20009;-66
2021/05/23 04:11:26;;;;;;;25.52;18.52;;;;;;;9.47;95.45;100950.66;6367202;23;20562;-66
2021/05/23 04:13:57;;;;;;;22.55;16.25;;;;;;;9.43;95.20;100949.22;6366713;23;20096;-67
2021/05/23 04:16:28;;;;;;;27.83;17.55;;;;;;;9.49;95.68;100953.97;6367755;23;20445;-67
2021/05/23 04:18:59;;;;;;;27.33;16.38;;;;;;;9.47;95.01;100958.50;6367541;23;20433;-67
2021/05/23 04:21:31;;;;;;;24.15;15.15;;;;;;;9.48;94.78;100961.94;6367562;23;20002;-67
2021/05/23 04:24:03;;;;;;;21.23;15.07;;;;;;;9.47;94.79;100965.47;6366852;23;20035;-67
2021/05/23 04:26:34;;;;;;;21.48;13.82;;;;;;;9.43;94.89;100967.53;6367075;23;20082;-67
2021/05/23 04:29:05;;;;;;;26.88;13.90;;;;;;;9.44;94.67;100973.59;6367051;23;20025;-67
2021/05/23 04:31:37;;;;;;;23.33;12.52;;;;;;;9.42;94.44;100973.69;6366506;23;20017;-67
2021/05/23 04:34:08;;;;;;;18.17;10.68;;;;;;;9.43;94.52;100972.78;6367678;23;20093;-67
2021/05/23 04:36:39;;;;;;;20.75;10.88;;;;;;;9.42;94.28;100968.47;6367789;23;20106;-67
2021/05/23 04:39:11;;;;;;;27.95;10.77;;;;;;;9.41;94.23;100979.88;6367117;23;20006;-67
2021/05/23 04:41:42;;;;;;;18.90;10.10;;;;;;;9.39;94.17;100979.16;6367502;23;20069;-67
2021/05/23 04:44:13;;;;;;;15.77;10.15;;;;;;;9.40;94.51;100982.63;6367326;23;20010;-67
2021/05/23 04:46:44;;;;;;;20.83;9.30;;;;;;;9.41;94.04;100984.28;6366348;23;20337;-67
2021/05/23 04:49:17;;;;;;;12.95;9.10;;;;;;;9.41;94.00;100986.91;6367544;23;20005;-67
2021/05/23 04:51:49;;;;;;;16.40;8.77;;;;;;;9.38;93.98;100979.28;6368063;23;20025;-67
2021/05/23 04:54:20;;;;;;;18.10;8.93;;;;;;;9.44;94.53;100994.50;6366244;23;20457;-67
2021/05/23 04:56:51;;;;;;;26.17;9.38;;;;;;;9.49;94.70;101001.03;6367412;23;20108;-67
2021/05/23 04:59:22;;;;;;;18.25;7.57;;;;;;;9.48;94.13;101001.16;6367361;23;20063;-67
2021/05/23 05:01:54;;;;;;;18.33;7.60;;;;;;;9.49;93.60;101000.22;6368155;23;20010;-67
2021/05/23 05:04:25;;;;;;;15.82;8.35;;;;;;;9.49;93.91;100995.81;6366794;23;20010;-67
2021/05/23 05:06:57;;;;;;;16.02;6.80;;;;;;;9.48;92.88;101007.22;6366846;23;20002;-67
2021/05/23 05:09:28;;;;;;;16.00;6.57;;;;;;;9.53;93.40;101013.88;6367896;23;20341;-67
2021/05/23 05:11:59;;;;;;;13.38;6.30;;;;;;;9.49;92.63;101013.28;6367133;23;20002;-67
2021/05/23 05:14:30;;;;;;;15.93;6.20;;;;;;;9.52;92.81;101010.44;6366955;23;20055;-67
2021/05/23 05:17:02;;;;;;;15.35;5.65;;;;;;;9.54;92.62;101011.13;6367248;23;20013;-67
2021/05/23 05:19:34;;;;;;;14.35;6.10;;;;;;;9.53;92.66;101017.31;6367377;23;20394;-67
2021/05/23 05:22:05;;;;;;;13.07;5.60;;;;;;;9.58;92.53;101019.56;6367299;23;20458;-67
2021/05/23 05:24:36;;;;;;;13.65;5.40;;;;;;;9.52;91.88;101026.13;6367168;23;20018;-67
2021/05/23 05:27:08;;;;;;;14.23;4.75;;;;;;;9.53;91.59;101021.72;6367230;23;20013;-67
2021/05/23 05:29:39;;;;;;;13.90;5.07;;;;;;;9.50;91.58;101026.22;6366332;23;20088;-67
2021/05/23 05:32:10;;;;;;;17.75;6.00;;;;;;;9.45;90.96;101022.31;6367617;23;20056;-67
2021/05/23 05:34:42;;;;;;;11.63;5.30;;;;;;;9.46;91.06;101023.97;6367021;23;20006;-70
2021/05/23 05:37:13;;;;;;;13.95;5.13;;;;;;;9.49;91.54;101024.56;6366880;23;20288;-69
2021/05/23 05:39:44;;;;;;;14.88;4.50;;;;;;;9.44;90.52;101034.56;6367328;23;20353;-69
2021/05/23 05:42:16;;;;;;;14.10;4.50;;;;;;;9.44;90.32;101038.97;6367113;23;20006;-69
2021/05/23 05:44:48;;;;;;;14.73;4.45;;;;;;;9.40;90.06;101042.78;6367282;23;20045;-69
2021/05/23 05:47:20;;;;;;;13.73;4.60;;;;;;;9.41;89.67;101047.03;6366629;23;20085;-69
2021/05/23 05:49:51;;;;;;;10.35;3.80;;;;;;;9.40;90.26;101048.00;6366866;23;20378;-70
2021/05/23 05:52:22;;;;;;;15.45;4.47;;;;;;;9.40;90.21;101054.06;6368486;23;20335;-69
2021/05/23 05:54:54;;;;;;;11.30;4.03;;;;;;;9.42;90.15;101052.16;6367967;23;20010;-67
2021/05/23 05:57:25;;;;;;;14.68;3.92;;;;;;;9.44;89.06;101055.50;6368556;23;20075;-67
2021/05/23 05:59:59;;;;;;;15.93;4.25;;;;;;;9.43;88.90;101061.69;6368017;23;20008;-67
2021/05/23 06:02:30;;;;;;;14.05;4.45;;;;;;;9.51;89.77;101050.63;6367369;23;20002;-67
2021/05/23 06:05:02;;;;;;;12.80;4.20;;;;;;;9.53;88.59;101060.97;6368626;23;20013;-67
2021/05/23 06:07:33;;;;;;;12.70;4.00;;;;;;;9.51;88.08;101061.09;6368826;23;20101;-67
2021/05/23 06:10:05;;;;;;;15.07;4.35;;;;;;;9.54;88.36;101063.44;6368052;23;20056;-67
2021/05/23 06:12:36;;;;;;;12.80;3.88;;;;;;;9.56;88.05;101071.19;6367254;23;20013;-67
2021/05/23 06:15:09;;;;;;;13.05;4.07;;;;;;;9.55;88.31;101067.75;6368019;23;20001;-67
2021/05/23 06:17:40;;;;;;;13.43;3.80;;;;;;;9.51;88.30;101074.16;6368088;23;20014;-67
2021/05/23 06:20:12;;;;;;;11.65;3.80;;;;;;;9.52;87.50;101072.38;6368281;23;20089;-69
2021/05/23 06:22:43;;;;;;;10.88;3.47;;;;;;;9.58;86.69;101079.75;6367067;23;20013;-69
2021/05/23 06:25:15;;;;;;;12.10;4.30;;;;;;;9.65;87.33;101076.53;6368460;23;20010;-69
2021/05/23 06:27:46;;;;;;;12.40;3.90;;;;;;;9.77;87.70;101072.13;6368523;23;20374;-69
2021/05/23 06:30:18;;;;;;;13.38;3.58;;;;;;;9.86;88.19;101084.50;6368008;23;20337;-69
2021/05/23 06:32:49;;;;;;;10.65;3.28;;;;;;;9.89;86.90;101086.91;6367994;23;20055;-69
2021/05/23 06:35:20;;;;;;;13.95;3.85;;;;;;;9.88;85.68;101082.59;6367729;23;20017;-69
2021/05/23 06:37:52;;;;;;;11.80;3.70;;;;;;;9.91;86.02;101090.22;6368073;23;20005;-69
2021/05/23 06:40:23;;;;;;;14.10;3.47;;;;;;;9.94;84.30;101099.63;6368220;23;20055;-69
2021/05/23 06:42:54;;;;;;;14.02;4.15;;;;;;;10.01;85.39;101100.81;6367479;23;20378;-69
2021/05/23 06:45:26;;;;;;;14.18;4.05;;;;;;;9.90;83.54;101096.41;6367975;23;20010;-67
2021/05/23 06:47:57;;;;;;;10.07;3.85;;;;;;;10.09;85.01;101113.28;6367442;23;20006;-67
2021/05/23 06:50:29;;;;;;;9.77;4.13;;;;;;;10.16;84.36;101110.06;6367774;23;20459;-67
2021/05/23 06:53:00;;;;;;;13.40;3.38;;;;;;;10.24;82.91;101123.38;6368179;23;20025;-67
2021/05/23 06:55:31;;;;;;;11.70;2.90;;;;;;;10.33;81.99;101124.47;6366910;23;20135;-67
2021/05/23 06:58:03;;;;;;;12.00;3.22;;;;;;;10.36;81.79;101121.63;6367926;23;20010;-67
2021/05/23 07:00:34;;;;;;;14.55;3.30;;;;;;;10.45;81.67;101122.66;6367963;23;20088;-67
2021/05/23 07:03:05;;;;;;;10.32;3.70;;;;;;;10.41;81.08;101127.31;6366395;23;20809;-70
2021/05/23 07:05:37;;;;;;;13.82;3.50;;;;;;;10.32;80.75;101129.84;6364935;23;20006;-69
2021/05/23 07:08:09;;;;;;;12.13;3.60;;;;;;;10.29;80.66;101137.94;6365932;23;20029;-69
2021/05/23 07:10:40;;;;;;;9.00;3.17;;;;;;;10.28;80.76;101139.72;6365529;23;20029;-69
2021/05/23 07:13:11;;;;;;;12.65;3.97;;;;;;;10.33;81.40;101145.41;6368015;23;20077;-69
2021/05/23 07:15:43;;;;;;;11.27;3.70;;;;;;;10.32;80.44;101135.91;6367514;23;20010;-69
2021/05/23 07:18:14;;;;;;;13.57;3.58;;;;;;;10.26;81.04;101133.75;6367751;23;20013;-70
2021/05/23 07:20:46;;;;;;;15.52;4.00;;;;;;;10.34;80.31;101135.78;6367435;23;20016;-69
2021/05/23 07:23:18;;;;;;;12.65;3.50;;;;;;;10.45;80.38;101144.47;6368147;23;20005;-69
2021/05/23 07:25:49;;;;;;;11.38;3.30;;;;;;;10.52;81.49;101150.03;6368028;23;20448;-69
2021/05/23 07:28:20;;;;;;;10.10;3.15;;;;;;;10.73;82.20;101151.91;6367768;23;20021;-70
2021/05/23 07:30:52;;;;;;;10.13;3.22;;;;;;;10.86;79.88;101144.69;6368205;23;20077;-70
2021/05/23 07:33:24;;;;;;;9.90;3.22;;;;;;;10.89;79.97;101145.28;6367659;23;20690;-69
2021/05/23 07:35:55;;;;;;;7.07;2.58;;;;;;;10.90;78.51;101149.56;6363986;23;20430;-69
2021/05/23 07:38:27;;;;;;;9.18;2.60;;;;;;;11.04;76.12;101155.50;6367645;23;20073;-69
2021/05/23 07:40:58;;;;;;;10.75;2.80;;;;;;;11.14;75.26;101143.28;6367643;23;20030;-70
2021/05/23 07:43:29;;;;;;;7.65;2.53;;;;;;;11.07;74.36;101150.00;6367077;23;20408;-70
2021/05/23 07:46:00;;;;;;;6.50;2.15;;;;;;;11.14;75.06;101149.38;6368350;23;20017;-69
2021/05/23 07:48:32;;;;;;;8.00;2.13;;;;;;;11.32;74.17;101147.00;6367187;23;20018;-70
2021/05/23 07:51:03;;;;;;;10.30;2.58;;;;;;;11.45;73.92;101162.56;6368350;23;20005;-70
2021/05/23 07:53:34;;;;;;;11.57;2.78;;;;;;;11.43;72.02;101153.97;6366786;23;20014;-70
2021/05/23 07:56:06;;;;;;;6.25;1.80;;;;;;;11.50;72.38;101164.78;6367918;23;20013;-70
2021/05/23 07:58:38;;;;;;;8.88;2.50;;;;;;;11.64;70.98;101151.34;6368151;23;20429;-68
2021/05/23 08:01:11;;;;;;;10.48;2.60;;;;;;;11.62;70.72;101161.97;6368209;23;20044;-69
2021/05/23 08:03:43;;;;;;;7.50;1.90;;;;;;;11.66;70.16;101166.00;6366746;23;20006;-70
2021/05/23 08:06:15;;;;;;;7.88;1.98;;;;;;;11.79;70.99;101170.22;6368256;23;20009;-69
2021/05/23 08:08:46;;;;;;;6.80;2.30;;;;;;;11.87;70.27;101178.31;6367871;23;20071;-70
2021/05/23 08:11:18;;;;;;;8.23;2.30;;;;;;;11.80;69.14;101183.22;6367267;23;20394;-69
2021/05/23 08:13:49;;;;;;;8.88;2.45;;;;;;;11.84;69.01;101186.44;6366916;23;20087;-66
2021/05/23 08:16:20;;;;;;;7.15;2.00;;;;;;;11.89;68.73;101185.09;6367631;23;20010;-66
2021/05/23 08:18:52;;;;;;;6.57;1.92;;;;;;;11.91;68.05;101190.22;6365503;23;20082;-66
2021/05/23 08:21:23;;;;;;;7.57;2.17;;;;;;;11.92;68.47;101190.06;6365588;23;20477;-66
2021/05/23 08:23:54;;;;;;;6.15;2.15;;;;;;;11.92;68.58;101197.94;6362427;23;20021;-66
2021/05/23 08:26:25;;;;;;;6.72;2.25;;;;;;;11.86;66.33;101198.50;6366572;23;20002;-66
2021/05/23 08:28:57;;;;;;;7.22;2.03;;;;;;;11.84;67.80;101200.41;6366812;23;20085;-66
2021/05/23 08:31:28;;;;;;;7.78;2.13;;;;;;;11.89;68.56;101206.13;6366734;23;20002;-66
2021/05/23 08:34:00;;;;;;;11.00;2.72;;;;;;;12.08;68.08;101207.16;6366482;23;20629;-66
2021/05/23 08:36:32;;;;;;;11.68;2.33;;;;;;;12.31;68.65;101208.66;6364602;23;21108;-66
2021/05/23 08:39:04;;;;;;;14.38;3.30;;;;;;;12.50;68.36;101221.03;6367396;23;20013;-66
2021/05/23 08:41:35;;;;;;;8.43;2.13;;;;;;;12.86;66.76;101202.97;6367676;23;20303;-66
2021/05/23 08:44:06;;;;;;;5.85;1.70;;;;;;;13.07;64.30;101202.88;6366783;23;20010;-66
2021/05/23 08:46:39;;;;;;;5.93;1.73;;;;;;;13.23;63.77;101216.34;6366439;23;20010;-66
2021/05/23 08:49:10;;;;;;;5.22;1.60;;;;;;;13.18;62.55;101212.41;6367113;23;20060;-66
2021/05/23 08:51:42;;;;;;;7.13;2.00;;;;;;;13.27;62.70;101228.25;6367230;23;20332;-66
2021/05/23 08:54:14;;;;;;;6.47;1.70;;;;;;;13.58;62.20;101226.28;6366437;23;20013;-66
2021/05/23 08:56:47;;;;;;;5.22;2.05;;;;;;;13.95;62.42;101224.72;6366522;23;20009;-66
2021/05/23 08:59:19;;;;;;;8.77;2.35;;;;;;;14.12;61.42;101223.97;6366308;23;20009;-66
2021/05/23 09:01:50;;;;;;;6.45;2.00;;;;;;;13.94;59.88;101228.31;6366103;23;20056;-65
2021/05/23 09:04:21;;;;;;;5.65;1.50;;;;;;;13.84;61.81;101231.81;6366000;23;20059;-66
2021/05/23 09:07:00;;;;;;;5.28;1.80;;;;;;;13.58;59.58;101246.53;6364647;23;20012;-66
2021/05/23 09:09:50;;;;;;;5.15;1.95;;;;;;;13.31;59.22;101247.22;6340330;23;20346;-66
2021/05/23 09:12:21;;;;;;;7.65;1.83;;;;;;;13.42;57.20;101256.78;6364347;23;20021;-66
2021/05/23 09:14:53;;;;;;;7.93;1.92;;;;;;;13.85;58.41;101251.06;6339975;23;20533;-66
2021/05/23 09:17:26;;;;;;;6.18;1.30;;;;;;;14.02;54.34;101250.34;6366134;23;20010;-66
2021/05/23 09:19:57;;;;;;;7.05;1.55;;;;;;;14.58;58.65;101243.34;6365708;23;20010;-66
2021/05/23 09:22:29;;;;;;;4.93;1.33;;;;;;;14.87;53.64;101248.47;6365768;23;20009;-66
2021/05/23 09:25:03;;;;;;;6.10;1.40;;;;;;;15.02;51.62;101252.28;6365893;23;20017;-66
2021/05/23 09:27:43;;;;;;;5.80;1.27;;;;;;;14.57;49.06;101261.00;6366007;23;20104;-66
2021/05/23 09:30:19;;;;;;;5.35;1.40;;;;;;;14.46;51.57;101262.94;6365797;23;20033;-66
2021/05/23 09:32:52;;;;;;;5.07;1.58;;;;;;;14.22;50.61;101269.56;6366651;23;20036;-66
2021/05/23 09:35:25;;;;;;;6.50;1.55;;;;;;;14.34;50.79;101276.31;6366577;23;20341;-67
2021/05/23 09:38:04;;;;;;;5.25;1.60;;;;;;;14.09;50.57;101271.66;6365639;23;20037;-67
2021/05/23 09:40:38;;;;;;;7.00;1.52;;;;;;;14.01;50.88;101282.09;6365751;23;20006;-66
2021/05/23 09:43:17;;;;;;;5.85;1.23;;;;;;;14.17;51.66;101271.81;6365712;23;20005;-66
2021/05/23 09:45:54;;;;;;;6.72;1.50;;;;;;;14.39;51.28;101282.94;6366655;23;20340;-66
2021/05/23 09:48:27;;;;;;;3.65;1.40;;;;;;;14.65;50.34;101272.63;6366251;23;20009;-66
2021/05/23 09:51:14;;;;;;;4.38;1.30;;;;;;;14.86;50.06;101275.84;6365781;23;20081;-66
2021/05/23 09:53:57;;;;;;;5.30;1.27;;;;;;;15.26;49.69;101277.25;6339931;23;20014;-66
2021/05/23 09:56:31;;;;;;;4.70;1.30;;;;;;;15.00;48.20;101282.41;6361261;23;20041;-66
2021/05/23 09:59:02;;;;;;;4.20;1.58;;;;;;;14.98;45.88;101277.28;6361791;23;20921;-66
2021/05/23 10:01:34;;;;;;;6.80;1.70;;;;;;;15.26;48.69;101279.88;6366174;23;20013;-67
2021/05/23 10:04:23;;;;;;;7.35;1.50;;;;;;;15.58;48.76;101285.47;6365604;23;20064;-66
2021/05/23 10:07:00;;;;;;;8.27;2.05;;;;;;;15.76;45.94;101285.50;6365136;23;20095;-66
2021/05/23 10:09:32;;;;;;;4.72;1.35;;;;;;;15.86;45.58;101287.22;6366158;23;20037;-66
2021/05/23 10:12:06;;;;;;;5.07;1.27;;;;;;;15.71;45.35;101298.31;6359230;23;20002;-66
2021/05/23 10:14:38;;;;;;;3.75;1.10;;;;;;;15.39;43.97;101300.66;6365319;23;20405;-66
2021/05/23 10:17:09;;;;;;;3.75;1.00;;;;;;;15.33;44.94;101300.25;6365455;23;20012;-67
2021/05/23 10:19:41;;;;;;;5.68;1.55;;;;;;;15.21;43.38;101313.81;6366338;23;20005;-66
2021/05/23 10:22:13;;;;;;;4.93;1.23;;;;;;;15.20;43.93;101298.97;6366255;23;20006;-65
2021/05/23 10:24:53;;;;;;;4.60;1.27;;;;;;;15.48;45.39;101303.19;6336834;23;20020;-66
2021/05/23 10:27:25;;;;;;;4.97;1.80;;;;;;;15.64;41.96;101317.53;6362733;23;20018;-68
2021/05/23 10:29:58;;;;;;;7.13;1.67;;;;;;;15.64;43.18;101306.97;6363724;23;20020;-68
2021/05/23 10:32:32;;;;;;;5.45;1.35;;;;;;;15.73;42.13;101301.66;6366415;23;20504;-68
2021/05/23 10:35:14;;;;;;;3.72;1.02;;;;;;;15.76;42.09;101303.16;6364923;23;20055;-68
2021/05/23 10:37:49;;;;;;;5.20;1.30;;;;;;;15.87;43.58;101300.25;6339455;23;20010;-65
2021/05/23 10:40:26;;;;;;;6.10;1.40;;;;;;;16.11;43.09;101291.69;6366074;23;20013;-67
2021/05/23 10:42:59;;;;;;;7.93;1.65;;;;;;;15.74;41.96;101303.31;6365566;23;20341;-66
2021/05/23 10:45:33;;;;;;;7.80;1.50;;;;;;;15.66;42.31;101305.06;6367167;23;20173;-66
2021/05/23 10:48:13;;;;;;;6.40;1.58;;;;;;;15.56;44.73;101310.38;6366548;23;20065;-66
2021/05/23 10:50:47;;;;;;;5.13;1.40;;;;;;;15.45;44.93;101311.41;6367519;23;20016;-66
2021/05/23 10:53:18;;;;;;;5.47;1.63;;;;;;;15.58;44.01;101311.06;6366151;23;20013;-66
2021/05/23 10:55:52;;;;;;;6.03;1.60;;;;;;;15.74;43.60;101313.88;6366457;23;20010;-66
2021/05/23 10:58:25;;;;;;;8.98;2.03;;;;;;;15.99;44.98;101298.22;6367234;23;20009;-66
2021/05/23 11:00:58;;;;;;;6.22;1.92;;;;;;;15.71;44.48;101322.09;6367305;23;20006;-66
2021/05/23 11:03:30;;;;;;;4.95;1.35;;;;;;;15.44;44.37;101308.94;6367351;23;20085;-66
2021/05/23 11:06:05;;;;;;;5.05;1.35;;;;;;;15.22;46.13;101318.94;6366813;23;20029;-66
2021/05/23 11:08:37;;;;;;;5.13;1.70;;;;;;;15.27;46.38;101316.72;6366825;23;20006;-65
2021/05/23 11:11:19;;;;;;;7.70;1.48;;;;;;;15.50;46.18;101311.81;6365276;23;20008;-66
2021/05/23 11:13:50;;;;;;;5.93;1.38;;;;;;;15.51;45.13;101313.47;6366679;23;20084;-66
2021/05/23 11:16:22;;;;;;;6.30;1.50;;;;;;;15.37;43.36;101307.88;6366847;23;20416;-66
2021/05/23 11:19:02;;;;;;;4.05;1.35;;;;;;;15.94;45.88;101311.88;6366307;23;20316;-66
2021/05/23 11:21:39;;;;;;;4.70;1.40;;;;;;;16.01;43.76;101312.91;6366415;23;20006;-66
2021/05/23 11:24:12;;;;;;;8.95;1.48;;;;;;;16.32;43.16;101306.34;6365721;23;20001;-65
2021/05/23 11:26:44;;;;;;;6.18;1.45;;;;;;;16.22;41.43;101307.28;6366309;23;20392;-66
2021/05/23 11:29:18;;;;;;;4.20;1.63;;;;;;;15.89;41.24;101302.75;6366738;23;20006;-66
2021/05/23 11:31:50;;;;;;;5.07;1.20;;;;;;;15.76;41.84;101316.38;6368067;23;20005;-66
2021/05/23 11:34:21;;;;;;;7.07;1.20;;;;;;;15.95;42.97;101310.91;6366585;23;20141;-66
2021/05/23 11:36:52;;;;;;;6.68;1.40;;;;;;;15.98;41.33;101317.69;6365198;23;20009;-66
2021/05/23 11:39:25;;;;;;;4.82;1.23;;;;;;;16.20;41.65;101317.19;6366633;23;20100;-65
2021/05/23 11:41:57;;;;;;;5.40;1.80;;;;;;;16.18;40.43;101316.53;6365325;23;20072;-66
2021/05/23 11:44:40;;;;;;;4.35;1.25;;;;;;;15.93;41.94;101318.16;6366604;23;20429;-66
2021/05/23 11:47:11;;;;;;;6.85;1.50;;;;;;;15.85;42.83;101314.63;6366744;23;20399;-65